createdAt,value
2024-04-18T00:01:12.951Z,100.00
2024-04-18T00:04:15.602Z,100.00
2024-04-18T00:07:18.070Z,100.00
2024-04-18T00:10:44.587Z,100.00
2024-04-18T00:14:07.223Z,100.00
2024-04-18T00:17:12.543Z,100.00
2024-04-18T00:20:15.041Z,100.00
2024-04-18T00:23:18.076Z,100.00
2024-04-18T00:26:40.794Z,100.00
2024-04-18T00:29:44.706Z,100.00
2024-04-18T00:32:47.252Z,100.00
2024-04-18T00:36:08.971Z,100.00
2024-04-18T00:39:22.780Z,100.00
2024-04-18T00:42:34.279Z,100.00
2024-04-18T00:45:40.369Z,100.00
2024-04-18T00:48:57.126Z,100.00
2024-04-18T00:51:59.837Z,100.00
2024-04-18T00:55:04.779Z,100.00
2024-04-18T00:58:12.629Z,100.00
2024-04-18T01:01:19.416Z,100.00
2024-04-18T01:04:31.221Z,100.00
2024-04-18T01:07:46.444Z,100.00
2024-04-18T01:10:58.217Z,100.00
2024-04-18T01:14:08.118Z,100.00
2024-04-18T01:17:29.222Z,100.00
2024-04-18T01:20:32.745Z,100.00
2024-04-18T01:23:36.505Z,100.00
2024-04-18T01:26:39.341Z,100.00
2024-04-18T01:29:41.901Z,100.00
2024-04-18T01:33:04.752Z,100.00
2024-04-18T01:36:07.608Z,100.00
2024-04-18T01:39:26.183Z,100.00
2024-04-18T01:42:39.218Z,100.00
2024-04-18T01:45:59.385Z,100.00
2024-04-18T01:49:02.030Z,100.00
2024-04-18T01:52:22.753Z,100.00
2024-04-18T01:55:25.209Z,100.00
2024-04-18T01:58:44.040Z,100.00
2024-04-18T02:01:46.607Z,100.00
2024-04-18T02:04:49.185Z,100.00
2024-04-18T02:08:11.639Z,100.00
2024-04-18T02:11:20.506Z,100.00
2024-04-18T02:14:55.352Z,100.00
2024-04-18T02:17:57.881Z,100.00
2024-04-18T02:21:17.186Z,100.00
2024-04-18T02:24:28.610Z,100.00
2024-04-18T02:27:31.330Z,100.00
2024-04-18T02:30:53.895Z,100.00
2024-04-18T02:34:16.896Z,100.00
2024-04-18T02:37:27.198Z,100.00
2024-04-18T02:40:29.761Z,100.00
2024-04-18T02:43:35.347Z,100.00
2024-04-18T02:46:37.875Z,100.00
2024-04-18T02:49:49.599Z,100.00
2024-04-18T02:52:52.176Z,100.00
2024-04-18T02:55:54.674Z,100.00
2024-04-18T02:59:06.380Z,100.00
2024-04-18T03:02:25.466Z,100.00
2024-04-18T03:05:47.958Z,100.00
2024-04-18T03:09:00.550Z,100.00
2024-04-18T03:12:03.246Z,100.00
2024-04-18T03:15:14.712Z,100.00
2024-04-18T03:18:17.282Z,100.00
2024-04-18T03:21:19.870Z,100.00
2024-04-18T03:24:24.145Z,100.00
2024-04-18T03:27:26.672Z,100.00
2024-04-18T03:30:29.208Z,100.00
2024-04-18T03:33:51.046Z,100.00
2024-04-18T03:36:53.999Z,100.00
2024-04-18T03:40:07.287Z,100.00
2024-04-18T03:43:09.867Z,100.00
2024-04-18T03:46:12.312Z,100.00
2024-04-18T03:49:34.474Z,100.00
2024-04-18T03:52:36.899Z,100.00
2024-04-18T03:55:58.238Z,100.00
2024-04-18T03:59:00.706Z,100.00
2024-04-18T04:02:03.230Z,100.00
2024-04-18T04:05:05.956Z,100.00
2024-04-18T04:08:08.701Z,100.00
2024-04-18T04:11:18.087Z,100.00
2024-04-18T04:14:20.882Z,100.00
2024-04-18T04:17:32.178Z,100.00
2024-04-18T04:20:44.805Z,100.00
2024-04-18T04:23:47.415Z,100.00
2024-04-18T04:26:50.532Z,100.00
2024-04-18T04:29:53.037Z,100.00
2024-04-18T04:32:55.954Z,100.00
2024-04-18T04:36:08.032Z,100.00
2024-04-18T04:39:10.552Z,100.00
2024-04-18T04:42:16.339Z,100.00
2024-04-18T04:45:18.922Z,100.00
2024-04-18T04:48:40.282Z,100.00
2024-04-18T04:51:48.750Z,100.00
2024-04-18T04:55:11.243Z,100.00
2024-04-18T04:58:13.784Z,100.00
2024-04-18T05:01:16.302Z,100.00
2024-04-18T05:04:19.612Z,100.00
2024-04-18T05:07:22.162Z,100.00
2024-04-18T05:10:24.997Z,100.00
2024-04-18T05:13:27.488Z,100.00
2024-04-18T05:16:50.475Z,100.00
2024-04-18T05:19:53.154Z,100.00
2024-04-18T05:23:11.492Z,100.00
2024-04-18T05:26:13.959Z,100.00
2024-04-18T05:29:34.946Z,100.00
2024-04-18T05:32:37.484Z,100.00
2024-04-18T05:35:45.941Z,100.00
2024-04-18T05:38:48.583Z,100.00
2024-04-18T05:41:51.069Z,100.00
2024-04-18T05:45:06.832Z,100.00
2024-04-18T05:48:09.512Z,100.00
2024-04-18T05:51:12.235Z,100.00
2024-04-18T05:54:33.519Z,100.00
2024-04-18T05:57:42.096Z,100.00
2024-04-18T06:01:06.364Z,100.00
2024-04-18T06:04:09.204Z,100.00
2024-04-18T06:07:11.816Z,100.00
2024-04-18T06:10:14.324Z,100.00
2024-04-18T06:13:17.124Z,100.00
2024-04-18T06:16:19.701Z,100.00
2024-04-18T06:19:28.693Z,100.00
2024-04-18T06:22:32.283Z,100.00
2024-04-18T06:25:53.336Z,100.00
2024-04-18T06:28:55.839Z,99.37
2024-04-18T06:32:15.015Z,97.47
2024-04-18T06:35:17.577Z,95.47
2024-04-18T06:38:20.373Z,97.00
2024-04-18T06:41:22.866Z,95.96
2024-04-18T06:44:25.538Z,91.04
2024-04-18T06:47:28.186Z,90.15
2024-04-18T06:50:45.821Z,87.95
2024-04-18T06:53:48.344Z,90.24
2024-04-18T06:56:51.038Z,89.10
2024-04-18T06:59:54.036Z,87.32
2024-04-18T07:02:56.716Z,85.49
2024-04-18T07:06:17.755Z,84.49
2024-04-18T07:09:37.845Z,86.68
2024-04-18T07:12:53.295Z,84.35
2024-04-18T07:15:56.999Z,83.39
2024-04-18T07:19:18.417Z,88.63
2024-04-18T07:22:30.234Z,87.64
2024-04-18T07:25:33.425Z,81.28
2024-04-18T07:28:35.949Z,76.97
2024-04-18T07:31:38.726Z,77.78
2024-04-18T07:34:50.045Z,76.96
2024-04-18T07:37:53.502Z,78.14
2024-04-18T07:40:56.412Z,79.54
2024-04-18T07:43:58.971Z,81.63
2024-04-18T07:47:01.391Z,79.34
2024-04-18T07:50:04.066Z,79.15
2024-04-18T07:53:09.919Z,78.81
2024-04-18T07:56:13.370Z,79.85
2024-04-18T07:59:18.377Z,82.22
2024-04-18T08:02:22.900Z,78.70
2024-04-18T08:05:28.415Z,79.01
2024-04-18T08:08:35.343Z,78.87
2024-04-18T08:12:05.333Z,77.15
2024-04-18T08:15:07.972Z,79.18
2024-04-18T08:18:17.810Z,73.46
2024-04-18T08:21:20.512Z,71.06
2024-04-18T08:24:35.542Z,67.56
2024-04-18T08:27:43.752Z,69.52
2024-04-18T08:30:46.711Z,68.07
2024-04-18T08:33:57.960Z,69.70
2024-04-18T08:37:05.400Z,73.91
2024-04-18T08:40:09.114Z,68.28
2024-04-18T08:43:12.548Z,66.81
2024-04-18T08:46:16.986Z,68.66
2024-04-18T08:49:24.312Z,62.79
2024-04-18T08:52:29.895Z,63.50
2024-04-18T08:55:36.751Z,62.41
2024-04-18T08:58:39.350Z,61.23
2024-04-18T09:01:43.220Z,63.01
2024-04-18T09:04:46.641Z,60.92
2024-04-18T09:07:49.200Z,65.37
2024-04-18T09:10:53.780Z,60.92
2024-04-18T09:13:56.350Z,58.29
2024-04-18T09:16:58.951Z,62.07
2024-04-18T09:20:01.515Z,60.89
2024-04-18T09:23:04.336Z,63.33
2024-04-18T09:26:07.080Z,62.17
2024-04-18T09:29:09.646Z,61.42
2024-04-18T09:32:16.308Z,59.59
2024-04-18T09:35:19.426Z,62.15
2024-04-18T09:38:24.096Z,59.31
2024-04-18T09:41:32.584Z,61.61
2024-04-18T09:44:37.950Z,57.18
2024-04-18T09:47:41.607Z,55.89
2024-04-18T09:50:45.837Z,56.07
2024-04-18T09:53:48.778Z,56.01
2024-04-18T09:56:53.518Z,58.14
2024-04-18T09:59:56.284Z,57.93
2024-04-18T10:03:00.870Z,63.15
2024-04-18T10:06:08.668Z,58.47
2024-04-18T10:09:13.722Z,56.20
2024-04-18T10:12:16.358Z,56.94
2024-04-18T10:15:20.398Z,54.11
2024-04-18T10:18:23.222Z,54.54
2024-04-18T10:21:36.477Z,53.40
2024-04-18T10:24:51.031Z,59.52
2024-04-18T10:27:53.729Z,53.09
2024-04-18T10:31:02.796Z,50.18
2024-04-18T10:34:05.837Z,46.90
2024-04-18T10:37:08.723Z,49.46
2024-04-18T10:40:16.721Z,53.37
2024-04-18T10:43:20.661Z,50.35
2024-04-18T10:46:24.505Z,49.84
2024-04-18T10:49:27.235Z,52.02
2024-04-18T10:52:29.774Z,50.90
2024-04-18T10:55:34.662Z,52.57
2024-04-18T10:58:38.220Z,55.55
2024-04-18T11:01:41.043Z,57.84
2024-04-18T11:04:45.215Z,58.29
2024-04-18T11:07:50.802Z,60.14
2024-04-18T11:10:53.665Z,61.29
2024-04-18T11:13:57.120Z,61.54
2024-04-18T11:17:02.343Z,63.51
2024-04-18T11:20:05.775Z,63.64
2024-04-18T11:23:14.917Z,65.97
2024-04-18T11:26:20.999Z,66.28
2024-04-18T11:29:30.515Z,66.64
2024-04-18T11:32:33.810Z,67.97
2024-04-18T11:35:36.383Z,66.54
2024-04-18T11:38:45.632Z,67.68
2024-04-18T11:41:48.080Z,67.17
2024-04-18T11:44:50.604Z,64.61
2024-04-18T11:47:58.955Z,64.51
2024-04-18T11:51:01.604Z,57.04
2024-04-18T11:54:04.234Z,52.51
2024-04-18T11:57:12.559Z,55.91
2024-04-18T12:00:15.653Z,57.83
2024-04-18T12:03:53.944Z,53.36
2024-04-18T12:07:14.353Z,52.65
2024-04-18T12:10:17.019Z,53.49
2024-04-18T12:13:38.097Z,60.06
2024-04-18T12:16:58.370Z,56.86
2024-04-18T12:20:20.798Z,54.17
2024-04-18T12:23:24.383Z,52.21
2024-04-18T12:26:40.550Z,55.13
2024-04-18T12:29:48.471Z,54.36
2024-04-18T12:32:51.482Z,55.58
2024-04-18T12:36:00.769Z,54.99
2024-04-18T12:39:05.029Z,56.64
2024-04-18T12:42:08.832Z,61.27
2024-04-18T12:45:11.523Z,59.47
2024-04-18T12:48:14.366Z,58.80
2024-04-18T12:51:17.044Z,58.77
2024-04-18T12:54:22.270Z,58.54
2024-04-18T12:57:24.848Z,61.14
2024-04-18T13:00:39.284Z,61.35
2024-04-18T13:03:43.285Z,62.57
2024-04-18T13:07:05.647Z,58.30
2024-04-18T13:10:08.312Z,56.81
2024-04-18T13:13:21.833Z,58.91
2024-04-18T13:16:42.803Z,58.99
2024-04-18T13:19:45.411Z,64.95
2024-04-18T13:22:50.353Z,63.37
2024-04-18T13:25:54.246Z,64.29
2024-04-18T13:28:56.738Z,65.45
2024-04-18T13:32:00.241Z,63.64
2024-04-18T13:35:02.766Z,62.89
2024-04-18T13:38:07.044Z,60.92
2024-04-18T13:41:29.528Z,62.86
2024-04-18T13:44:32.028Z,77.57
2024-04-18T13:47:54.462Z,90.88
2024-04-18T13:51:19.944Z,90.95
2024-04-18T13:54:24.297Z,95.54
2024-04-18T13:57:29.408Z,96.23
2024-04-18T14:00:52.380Z,94.06
2024-04-18T14:04:03.793Z,93.11
2024-04-18T14:07:15.394Z,90.08
2024-04-18T14:10:18.082Z,90.68
2024-04-18T14:13:39.169Z,86.58
2024-04-18T14:17:20.077Z,88.40
2024-04-18T14:20:45.891Z,83.46
2024-04-18T14:23:48.459Z,88.19
2024-04-18T14:26:50.946Z,80.08
2024-04-18T14:29:59.231Z,72.91
2024-04-18T14:33:11.591Z,80.77
2024-04-18T14:36:14.401Z,78.61
2024-04-18T14:39:17.008Z,78.36
2024-04-18T14:42:19.555Z,80.89
2024-04-18T14:45:22.151Z,74.41
2024-04-18T14:48:24.729Z,80.10
2024-04-18T14:51:27.285Z,77.75
2024-04-18T14:54:29.797Z,78.44
2024-04-18T14:57:32.388Z,80.21
2024-04-18T15:00:54.833Z,77.69
2024-04-18T15:03:57.764Z,71.15
2024-04-18T15:07:00.228Z,77.17
2024-04-18T15:10:13.360Z,75.80
2024-04-18T15:13:34.397Z,71.26
2024-04-18T15:16:56.783Z,67.07
2024-04-18T15:19:59.423Z,68.38
2024-04-18T15:23:14.878Z,68.94
2024-04-18T15:26:20.098Z,68.17
2024-04-18T15:29:22.627Z,71.30
2024-04-18T15:32:43.783Z,73.21
2024-04-18T15:35:55.314Z,73.46
2024-04-18T15:38:57.842Z,72.06
2024-04-18T15:42:00.340Z,71.15
2024-04-18T15:45:22.132Z,69.25
2024-04-18T15:48:26.112Z,69.31
2024-04-18T15:51:28.738Z,67.10
2024-04-18T15:54:43.346Z,69.47
2024-04-18T15:57:45.779Z,67.02
2024-04-18T16:00:48.356Z,69.56
2024-04-18T16:04:09.208Z,76.17
2024-04-18T16:07:30.734Z,68.67
2024-04-18T16:10:53.026Z,68.08
2024-04-18T16:14:01.365Z,75.72
2024-04-18T16:17:04.357Z,73.96
2024-04-18T16:20:35.941Z,76.21
2024-04-18T16:23:38.458Z,77.71
2024-04-18T16:26:40.967Z,83.24
2024-04-18T16:29:43.511Z,72.64
2024-04-18T16:33:06.182Z,72.02
2024-04-18T16:36:10.160Z,73.36
2024-04-18T16:39:27.807Z,75.08
2024-04-18T16:42:35.454Z,81.37
2024-04-18T16:45:38.373Z,85.87
2024-04-18T16:48:40.967Z,86.72
2024-04-18T16:51:43.498Z,81.02
2024-04-18T16:54:49.724Z,81.20
2024-04-18T16:58:12.091Z,83.83
2024-04-18T17:01:14.584Z,86.00
2024-04-18T17:04:17.298Z,86.48
2024-04-18T17:07:45.897Z,87.97
2024-04-18T17:10:57.856Z,89.09
2024-04-18T17:14:19.091Z,90.67
2024-04-18T17:17:22.851Z,90.95
2024-04-18T17:20:31.151Z,91.50
2024-04-18T17:23:33.583Z,92.27
2024-04-18T17:26:36.147Z,91.78
2024-04-18T17:29:38.805Z,92.77
2024-04-18T17:32:41.499Z,93.22
2024-04-18T17:36:03.033Z,94.02
2024-04-18T17:39:21.036Z,93.85
2024-04-18T17:42:23.564Z,93.19
2024-04-18T17:45:32.416Z,93.27
2024-04-18T17:48:50.466Z,95.92
2024-04-18T17:51:53.351Z,96.57
2024-04-18T17:54:58.907Z,92.94
2024-04-18T17:58:02.558Z,90.52
2024-04-18T18:01:05.420Z,88.97
2024-04-18T18:04:10.614Z,91.18
2024-04-18T18:07:13.455Z,93.24
2024-04-18T18:10:16.448Z,90.17
2024-04-18T18:13:38.984Z,90.24
2024-04-18T18:16:41.425Z,89.94
2024-04-18T18:19:44.421Z,93.81
2024-04-18T18:22:47.267Z,92.74
2024-04-18T18:25:50.644Z,92.04
2024-04-18T18:28:53.562Z,91.77
2024-04-18T18:31:56.248Z,93.74
2024-04-18T18:34:59.645Z,95.25
2024-04-18T18:38:05.847Z,97.44
2024-04-18T18:41:08.603Z,98.90
2024-04-18T18:44:11.277Z,97.24
2024-04-18T18:47:13.858Z,98.76
2024-04-18T18:50:26.022Z,100.00
2024-04-18T18:53:29.513Z,100.00
2024-04-18T18:56:32.263Z,100.00
2024-04-18T18:59:54.178Z,100.00
2024-04-18T19:02:59.845Z,100.00
2024-04-18T19:06:27.576Z,100.00
2024-04-18T19:09:33.183Z,100.00
2024-04-18T19:12:37.724Z,100.00
2024-04-18T19:15:40.940Z,100.00
2024-04-18T19:18:45.368Z,100.00
2024-04-18T19:21:48.262Z,100.00
2024-04-18T19:24:52.521Z,100.00
2024-04-18T19:27:55.892Z,100.00
2024-04-18T19:30:59.845Z,100.00
2024-04-18T19:34:02.862Z,100.00
2024-04-18T19:37:06.823Z,100.00
2024-04-18T19:40:10.170Z,100.00
2024-04-18T19:43:33.857Z,100.00
2024-04-18T19:46:37.162Z,100.00
2024-04-18T19:49:44.322Z,100.00
2024-04-18T19:52:47.496Z,100.00
2024-04-18T19:55:51.702Z,100.00
2024-04-18T19:58:55.514Z,100.00
2024-04-18T20:01:59.210Z,100.00
2024-04-18T20:05:02.910Z,100.00
2024-04-18T20:08:07.534Z,100.00
2024-04-18T20:11:10.986Z,100.00
2024-04-18T20:14:14.199Z,100.00
2024-04-18T20:17:18.624Z,100.00
2024-04-18T20:20:22.086Z,100.00
2024-04-18T20:23:26.810Z,100.00
2024-04-18T20:26:30.274Z,100.00
2024-04-18T20:29:48.433Z,100.00
2024-04-18T20:32:58.578Z,100.00
2024-04-18T20:36:01.528Z,100.00
2024-04-18T20:39:04.231Z,100.00
2024-04-18T20:42:06.936Z,100.00
2024-04-18T20:45:09.604Z,100.00
2024-04-18T20:48:12.241Z,100.00
2024-04-18T20:51:14.846Z,100.00
2024-04-18T20:54:17.637Z,100.00
2024-04-18T20:57:20.557Z,100.00
2024-04-18T21:00:26.855Z,100.00
2024-04-18T21:03:29.874Z,100.00
2024-04-18T21:06:32.953Z,100.00
2024-04-18T21:09:35.734Z,100.00
2024-04-18T21:12:38.399Z,100.00
2024-04-18T21:15:41.667Z,100.00
2024-04-18T21:18:44.506Z,100.00
2024-04-18T21:21:47.409Z,100.00
2024-04-18T21:24:50.000Z,100.00
2024-04-18T21:27:52.582Z,100.00
2024-04-18T21:30:55.180Z,100.00
2024-04-18T21:33:57.889Z,100.00
2024-04-18T21:37:00.505Z,100.00
2024-04-18T21:40:03.755Z,100.00
2024-04-18T21:43:06.296Z,100.00
2024-04-18T21:46:08.872Z,100.00
2024-04-18T21:49:11.559Z,100.00
2024-04-18T21:52:14.154Z,100.00
2024-04-18T21:55:17.015Z,100.00
2024-04-18T21:58:19.520Z,100.00
2024-04-18T22:01:22.123Z,100.00
2024-04-18T22:04:24.824Z,100.00
2024-04-18T22:07:28.073Z,100.00
2024-04-18T22:10:30.602Z,100.00
2024-04-18T22:13:33.168Z,100.00
2024-04-18T22:16:36.421Z,100.00
2024-04-18T22:19:39.068Z,100.00
2024-04-18T22:22:41.683Z,100.00
2024-04-18T22:25:44.572Z,100.00
2024-04-18T22:28:47.148Z,100.00
2024-04-18T22:31:49.746Z,100.00
2024-04-18T22:34:52.304Z,100.00
2024-04-18T22:38:08.412Z,100.00
2024-04-18T22:41:11.011Z,100.00
2024-04-18T22:44:13.543Z,100.00
2024-04-18T22:47:16.712Z,100.00
2024-04-18T22:50:19.330Z,100.00
2024-04-18T22:53:22.255Z,100.00
2024-04-18T22:56:27.226Z,100.00
2024-04-18T22:59:30.134Z,100.00
2024-04-18T23:02:32.608Z,100.00
2024-04-18T23:05:35.308Z,100.00
2024-04-18T23:08:37.873Z,100.00
2024-04-18T23:11:40.466Z,100.00
2024-04-18T23:14:43.104Z,100.00
2024-04-18T23:17:45.757Z,100.00
2024-04-18T23:20:48.515Z,100.00
2024-04-18T23:23:51.401Z,100.00
2024-04-18T23:26:53.943Z,100.00
2024-04-18T23:29:56.548Z,100.00
2024-04-18T23:32:59.477Z,100.00
2024-04-18T23:36:02.028Z,100.00
2024-04-18T23:39:04.960Z,100.00
2024-04-18T23:42:07.427Z,100.00
2024-04-18T23:45:10.038Z,100.00
2024-04-18T23:48:13.933Z,100.00
2024-04-18T23:51:16.637Z,100.00
2024-04-18T23:54:19.247Z,100.00
2024-04-18T23:57:21.843Z,100.00
